Buritis, Brazil
Current Conditions -  °F | °C
As of 3:00 PM on Thursday 27 Nov 2014 (Local Time) from SBBR Reporting Station
Rain Showers Rain Showers  
Wind Chill: 79°   Ceiling: 7000
Heat Index: 81°   Visibility: 6mi
Dew Point: 66°   Wind: 12mph
Humidity: 65%   Direction: 80°E
Pressure: 29.97"   Gusts: NA
Location:  15.62°S, 46.42°W
Report Text: SBBR 271700Z 08010KT 9999 VCSH SCT035 BKN070 26/19 Q1015
Loading
Personal Weather Stations






























Interactive Weather Map New forecast layout! Learn more

10-Day Weather Forecast

Advertisements
Track Severe Weather on mobile